createdAt,value
2019-05-18T11:48:23.647Z,94828.26
2019-05-18T11:50:56.473Z,94831.98
2019-05-18T11:53:28.611Z,94832.85
2019-05-18T11:56:01.531Z,94828.00
2019-05-18T11:58:34.238Z,94827.54
2019-05-18T12:01:06.568Z,94825.91
2019-05-18T12:03:39.771Z,94820.63
2019-05-18T12:06:12.906Z,94824.45
2019-05-18T12:08:45.844Z,94818.70
2019-05-18T12:11:18.415Z,94812.68
2019-05-18T12:13:51.242Z,94823.94
2019-05-18T12:16:23.515Z,94826.41
2019-05-18T12:18:57.539Z,94823.14
2019-05-18T12:21:29.795Z,94819.01
2019-05-18T12:24:14.788Z,94824.70
2019-05-18T12:26:37.525Z,94820.08
2019-05-18T12:29:10.292Z,94821.52
2019-05-18T12:31:42.454Z,94818.05
2019-05-18T12:34:13.904Z,94810.87
2019-05-18T12:36:46.335Z,94810.53
2019-05-18T12:39:18.975Z,94808.31
2019-05-18T12:41:51.464Z,94808.17
2019-05-18T12:44:23.361Z,94808.91
2019-05-18T12:46:55.690Z,94812.30
2019-05-18T12:49:28.364Z,94813.35
2019-05-18T12:52:00.800Z,94817.44
2019-05-18T12:54:46.113Z,94811.94
2019-05-18T12:57:08.650Z,94813.19
2019-05-18T12:59:41.524Z,94807.09
2019-05-18T13:02:14.585Z,94803.49
2019-05-18T13:04:47.423Z,94805.05
2019-05-18T13:07:20.030Z,94813.20
2019-05-18T13:09:52.505Z,94806.02
2019-05-18T13:12:24.310Z,94809.97
2019-05-18T13:14:57.271Z,94814.19
2019-05-18T13:17:30.471Z,94802.86
2019-05-18T13:20:03.350Z,94806.60
2019-05-18T13:22:35.568Z,94812.41
2019-05-18T13:25:09.025Z,94815.89
2019-05-18T13:27:42.381Z,94812.47
2019-05-18T13:30:14.713Z,94812.91
2019-05-18T13:32:48.481Z,94821.60
2019-05-18T13:35:21.459Z,94836.36
2019-05-18T13:37:52.985Z,94868.59
2019-05-18T13:40:25.734Z,94849.86
2019-05-18T13:42:58.353Z,94846.59
2019-05-18T13:45:31.434Z,94845.32
2019-05-18T13:48:02.993Z,94853.45
2019-05-18T13:50:44.920Z,94906.52
2019-05-18T13:53:34.964Z,94902.47
2019-05-18T13:56:10.812Z,94891.32
2019-05-18T13:59:00.763Z,95091.61
2019-05-18T14:01:41.727Z,96391.70
2019-05-18T14:04:13.659Z,96900.62
2019-05-18T14:06:46.590Z,97085.72
2019-05-18T14:09:19.444Z,97152.04
2019-05-18T14:11:51.619Z,97146.38
2019-05-18T14:14:30.771Z,97133.09
2019-05-18T14:17:10.952Z,97118.27
2019-05-18T14:19:48.287Z,97124.05
2019-05-18T14:22:30.967Z,97128.41
2019-05-18T14:25:10.527Z,97155.52
2019-05-18T14:27:34.403Z,97154.51
2019-05-18T14:30:07.259Z,97180.83
2019-05-18T14:32:40.469Z,97202.49
2019-05-18T14:35:15.975Z,97311.51
2019-05-18T14:37:52.554Z,97279.05
2019-05-18T14:40:26.741Z,97137.56
2019-05-18T14:42:57.881Z,96716.36
2019-05-18T14:45:39.309Z,96318.75
2019-05-18T14:48:22.910Z,95034.13
2019-05-18T14:50:55.343Z,94729.59
2019-05-18T14:53:31.506Z,94785.68
2019-05-18T15:00:02.638Z,97476.64
2019-05-18T15:59:33.923Z,97442.57
